Time;durP1;ratioP1;P1;durP2;ratioP2;P2;SDS_P1;SDS_P2;PMS_P1;PMS_P2;Temp;Humidity;BMP_temperature;BMP_pressure;BME280_temperature;BME280_humidity;BME280_pressure;Samples;Min_cycle;Max_cycle;Signal;HPM_P1;HPM_P2
2021/10/20 00:02:18;;;;;;;6.73;1.93;;;;;;;-145.69;87.92;72027.25;5086014;28;20667;-76
2021/10/20 00:04:45;;;;;;;3.70;1.60;;;;;;;-145.69;92.62;72082.97;5092300;28;20198;-77
2021/10/20 00:07:12;;;;;;;3.03;1.63;;;;;;;-145.69;93.15;72110.84;5092496;28;20734;-77
2021/10/20 00:09:38;;;;;;;3.67;1.53;;;;;;;-145.69;100.00;72162.59;5092336;28;20723;-77
2021/10/20 00:12:06;;;;;;;3.07;1.50;;;;;;;-145.69;96.43;72146.69;5092439;28;20227;-77
2021/10/20 00:14:33;;;;;;;2.87;1.43;;;;;;;-145.69;94.26;72098.91;5092469;28;20247;-77
2021/10/20 00:16:59;;;;;;;5.03;1.90;;;;;;;-145.69;89.49;72082.97;5092199;28;20559;-77
2021/10/20 00:19:27;;;;;;;2.40;1.53;;;;;;;-145.69;86.04;72043.19;5092373;28;20665;-77
2021/10/20 00:21:56;;;;;;;1.23;1.10;;;;;;;-145.69;90.30;72059.09;5096349;28;20208;-77
2021/10/20 00:24:22;;;;;;;3.83;1.60;;;;;;;-145.69;86.78;72047.16;5095981;28;20198;-77
2021/10/20 00:26:49;;;;;;;3.13;1.20;;;;;;;-145.69;86.37;72027.25;5096109;28;20230;-77
2021/10/20 00:29:15;;;;;;;4.43;1.43;;;;;;;-145.69;88.48;72031.25;5094431;28;20646;-77
2021/10/20 00:31:42;;;;;;;5.87;2.13;;;;;;;-145.69;89.62;72055.13;5094798;28;20194;-78
2021/10/20 00:34:08;;;;;;;6.57;1.80;;;;;;;-145.69;87.53;72065.06;5095367;28;20279;-77
2021/10/20 00:36:36;;;;;;;2.13;1.20;;;;;;;-145.69;87.90;72055.13;5094914;28;20210;-77
2021/10/20 00:39:03;;;;;;;3.33;1.40;;;;;;;-145.69;88.67;72079.00;5095603;28;20209;-77
2021/10/20 00:41:31;;;;;;;4.03;1.77;;;;;;;-145.69;87.43;72071.03;5095700;28;20198;-78
2021/10/20 00:43:57;;;;;;;2.73;1.40;;;;;;;-145.69;90.96;72077.00;5095454;28;20202;-77
2021/10/20 00:46:28;;;;;;;3.07;1.50;;;;;;;-145.69;90.59;72084.97;5094829;28;20206;-77
2021/10/20 00:48:54;;;;;;;7.70;1.53;;;;;;;-145.69;91.06;72094.94;5095169;28;20225;-77
2021/10/20 00:51:25;;;;;;;2.20;1.40;;;;;;;-145.69;91.54;72120.81;5095740;28;20202;-78
2021/10/20 00:53:53;;;;;;;4.03;1.63;;;;;;;-145.69;89.30;72086.97;5095519;28;20546;-78
2021/10/20 00:56:20;;;;;;;4.23;1.60;;;;;;;-145.69;88.01;72067.06;5093015;28;20220;-78
2021/10/20 00:58:47;;;;;;;2.90;1.70;;;;;;;-145.69;86.79;72063.09;5094009;28;20202;-77
2021/10/20 01:01:13;;;;;;;3.97;1.77;;;;;;;-145.69;84.76;72039.19;5095207;28;20289;-77
2021/10/20 01:03:40;;;;;;;5.27;1.67;;;;;;;-145.69;83.68;72015.31;5095279;28;20205;-77
2021/10/20 01:06:06;;;;;;;3.60;1.80;;;;;;;-145.69;86.04;72011.34;5095095;28;20205;-77
2021/10/20 01:08:33;;;;;;;5.23;1.53;;;;;;;-145.69;86.97;72013.31;5094081;28;20221;-77
2021/10/20 01:11:01;;;;;;;2.23;1.50;;;;;;;-145.69;85.29;72007.34;5094801;28;20238;-78
2021/10/20 01:13:27;;;;;;;2.87;1.60;;;;;;;-145.69;84.58;72011.34;5095004;28;20233;-77
2021/10/20 01:15:55;;;;;;;3.60;1.80;;;;;;;-145.69;85.77;72007.34;5095186;28;20202;-77
2021/10/20 01:18:21;;;;;;;5.33;2.10;;;;;;;-145.69;88.58;72031.25;5094777;28;20202;-77
2021/10/20 01:20:51;;;;;;;9.10;1.40;;;;;;;-145.69;85.92;72021.28;5094423;28;20205;-77
2021/10/20 01:23:19;;;;;;;3.03;1.33;;;;;;;-145.69;83.31;72003.38;5093823;28;20194;-78
2021/10/20 01:25:46;;;;;;;3.40;1.40;;;;;;;-145.69;85.66;71999.41;5094783;28;20202;-77
2021/10/20 01:28:12;;;;;;;2.80;1.73;;;;;;;-145.69;86.41;72003.38;5094704;28;20195;-77
2021/10/20 01:30:39;;;;;;;5.90;1.77;;;;;;;-145.69;86.39;72017.31;5093968;28;20567;-77
2021/10/20 01:33:05;;;;;;;3.70;1.77;;;;;;;-145.69;84.36;71969.53;5094251;28;20198;-77
2021/10/20 01:35:32;;;;;;;4.00;1.43;;;;;;;-145.69;87.93;71983.47;5092632;28;20237;-77
2021/10/20 01:37:59;;;;;;;5.43;1.60;;;;;;;-145.69;85.61;71997.41;5092930;28;20227;-78
2021/10/20 01:40:28;;;;;;;2.03;1.40;;;;;;;-145.69;86.61;72033.22;5093766;28;20214;-77
2021/10/20 01:42:54;;;;;;;2.30;1.37;;;;;;;-145.69;85.36;71995.41;5089967;28;20708;-77
2021/10/20 01:45:21;;;;;;;3.17;1.47;;;;;;;-145.69;81.64;71957.59;5094417;28;20599;-76
2021/10/20 01:47:48;;;;;;;3.80;1.63;;;;;;;-145.69;83.26;71967.56;5094120;28;20201;-77
2021/10/20 01:50:16;;;;;;;2.63;1.37;;;;;;;-145.69;85.28;72009.34;5092969;28;20944;-77
2021/10/20 01:52:43;;;;;;;3.70;1.60;;;;;;;-145.69;81.64;71983.47;5094046;28;20339;-77
2021/10/20 01:55:11;;;;;;;2.83;1.50;;;;;;;-145.69;86.73;72011.34;5094277;28;20197;-77
2021/10/20 01:57:39;;;;;;;4.13;1.70;;;;;;;-145.69;90.77;72063.09;5094282;28;20202;-77
2021/10/20 02:00:07;;;;;;;4.87;1.50;;;;;;;-145.69;92.08;72055.13;5094412;28;20210;-76
2021/10/20 02:02:33;;;;;;;3.13;1.60;;;;;;;-145.69;92.84;72079.00;5094113;28;20221;-77
2021/10/20 02:05:00;;;;;;;2.63;1.73;;;;;;;-145.69;89.82;72077.00;5094309;28;20201;-77
2021/10/20 02:07:27;;;;;;;6.03;1.70;;;;;;;-145.69;86.67;72015.31;5093818;28;20206;-77
2021/10/20 02:09:53;;;;;;;7.37;1.90;;;;;;;-145.69;91.92;72011.34;5092604;28;20233;-77
2021/10/20 02:12:20;;;;;;;5.00;2.03;;;;;;;-145.69;94.08;72039.19;5093011;28;20664;-77
2021/10/20 02:14:48;;;;;;;2.80;1.60;;;;;;;-145.69;92.46;72055.13;5093779;28;20228;-76
2021/10/20 02:17:14;;;;;;;3.70;1.50;;;;;;;-145.69;93.21;72051.16;5093841;28;20202;-78
2021/10/20 02:19:41;;;;;;;2.13;1.33;;;;;;;-145.69;90.96;72035.22;5092813;28;20198;-77
2021/10/20 02:22:07;;;;;;;2.77;1.70;;;;;;;-145.69;95.26;72043.19;5092948;28;20546;-78
2021/10/20 02:24:34;;;;;;;2.97;1.50;;;;;;;-145.69;92.78;72023.28;5092306;28;20202;-77
2021/10/20 02:27:01;;;;;;;3.23;1.50;;;;;;;-145.69;95.21;72009.34;5093388;28;20557;-77
2021/10/20 02:29:30;;;;;;;8.33;1.83;;;;;;;-145.69;100.00;72053.13;5093361;28;20264;-76
2021/10/20 02:31:59;;;;;;;4.20;1.03;;;;;;;-145.69;93.87;72039.19;5093663;28;20255;-76
2021/10/20 02:34:25;;;;;;;2.93;1.30;;;;;;;-145.69;88.25;72039.19;5092661;28;20230;-77
2021/10/20 02:36:52;;;;;;;3.70;1.70;;;;;;;-145.69;87.56;72023.28;5092362;28;20204;-77
2021/10/20 02:39:18;;;;;;;5.40;1.10;;;;;;;-145.69;76.22;71963.56;5092685;28;20205;-77
2021/10/20 02:41:45;;;;;;;5.17;1.30;;;;;;;-145.69;74.29;71923.78;5092058;28;20209;-77
2021/10/20 02:44:11;;;;;;;4.30;1.57;;;;;;;-145.69;77.00;71899.88;5093012;28;20660;-77
2021/10/20 02:46:38;;;;;;;2.20;1.50;;;;;;;-145.69;80.74;71897.91;5093473;28;20197;-77
2021/10/20 02:49:06;;;;;;;3.63;1.40;;;;;;;-145.69;80.19;71907.84;5092730;28;20201;-78
2021/10/20 02:51:32;;;;;;;2.30;1.63;;;;;;;-145.69;80.90;71889.94;5092332;28;20235;-77
2021/10/20 02:54:01;;;;;;;1.97;1.50;;;;;;;-145.69;80.29;71891.94;5092577;28;20305;-77
2021/10/20 02:56:31;;;;;;;3.17;1.57;;;;;;;-145.69;80.03;71889.94;5093119;28;20202;-77
2021/10/20 02:58:57;;;;;;;3.03;1.50;;;;;;;-145.69;79.96;71899.88;5093064;28;20213;-77
2021/10/20 03:01:24;;;;;;;2.17;1.40;;;;;;;-145.69;78.53;71917.81;5092856;28;20657;-78
2021/10/20 03:03:50;;;;;;;2.27;1.30;;;;;;;-145.69;72.24;71876.00;5092444;28;20702;-78
2021/10/20 03:06:18;;;;;;;2.60;1.30;;;;;;;-145.69;73.87;71844.16;5093173;28;20202;-77
2021/10/20 03:08:45;;;;;;;2.27;1.30;;;;;;;-145.69;72.31;71864.06;5092381;28;20198;-77
2021/10/20 03:11:11;;;;;;;3.80;1.60;;;;;;;-145.69;65.16;71792.44;5092819;28;20275;-77
2021/10/20 03:13:38;;;;;;;2.47;1.30;;;;;;;-145.69;64.97;71768.53;5092881;28;20194;-77
2021/10/20 03:16:05;;;;;;;3.00;1.30;;;;;;;-145.69;71.00;71792.44;5092452;28;20220;-78
2021/10/20 03:18:34;;;;;;;3.87;1.30;;;;;;;-145.69;72.02;71838.19;5091630;28;20607;-77
2021/10/20 03:21:00;;;;;;;2.17;1.30;;;;;;;-145.69;69.71;71826.25;5093005;28;20201;-76
2021/10/20 03:23:28;;;;;;;2.10;1.17;;;;;;;-145.69;69.14;71830.25;5092485;28;20210;-76
2021/10/20 03:25:55;;;;;;;1.33;1.00;;;;;;;-145.69;69.94;71828.25;5091870;28;20753;-78
2021/10/20 03:28:21;;;;;;;2.03;1.00;;;;;;;-145.69;73.48;71832.22;5092102;28;20660;-77
2021/10/20 03:30:48;;;;;;;1.30;1.10;;;;;;;-145.69;73.37;71856.09;5091733;28;20230;-77
2021/10/20 03:33:14;;;;;;;1.70;1.20;;;;;;;-145.69;75.06;71880.00;5091801;28;20581;-77
2021/10/20 03:35:43;;;;;;;3.50;1.27;;;;;;;-145.69;72.84;71887.94;5092443;28;20229;-77
2021/10/20 03:38:11;;;;;;;1.60;1.10;;;;;;;-145.69;76.03;71901.88;5092024;28;20202;-78
2021/10/20 03:40:39;;;;;;;2.17;1.40;;;;;;;-145.69;75.05;71919.78;5092537;28;20312;-77
2021/10/20 03:43:06;;;;;;;2.20;1.50;;;;;;;-145.69;75.06;71889.94;5089539;28;20645;-77
2021/10/20 03:45:33;;;;;;;2.63;1.23;;;;;;;-145.69;75.67;71905.88;5091052;28;20251;-77
2021/10/20 03:47:59;;;;;;;6.97;1.43;;;;;;;-145.69;73.55;71862.06;5092700;28;20209;-78
2021/10/20 03:50:25;;;;;;;4.87;1.40;;;;;;;-145.69;76.49;71881.97;5089366;28;20267;-77
2021/10/20 03:52:52;;;;;;;2.10;1.20;;;;;;;-145.69;74.96;71844.16;5091409;28;20209;-76
2021/10/20 03:55:18;;;;;;;1.83;1.40;;;;;;;-145.69;74.68;71868.06;5094029;28;20206;-76
2021/10/20 03:57:46;;;;;;;2.60;1.33;;;;;;;-145.69;76.36;71872.03;5096539;28;20197;-77
2021/10/20 04:00:16;;;;;;;1.70;1.10;;;;;;;-145.69;74.44;71883.97;5096817;28;20194;-77
2021/10/20 04:02:44;;;;;;;5.47;1.20;;;;;;;-145.69;76.60;71883.97;5096715;28;20204;-78
2021/10/20 04:05:11;;;;;;;1.37;1.07;;;;;;;-145.69;77.42;71899.88;5096354;28;20202;-77
2021/10/20 04:07:42;;;;;;;3.00;1.37;;;;;;;-145.69;81.27;71931.72;5095523;28;20288;-77
2021/10/20 04:10:11;;;;;;;8.67;1.90;;;;;;;-145.69;82.24;71935.72;5096226;28;20279;-77
2021/10/20 04:12:38;;;;;;;5.80;1.53;;;;;;;-145.69;85.62;71935.72;5096151;28;20267;-77
2021/10/20 04:15:08;;;;;;;1.63;1.20;;;;;;;-145.69;76.75;71933.72;5096175;28;20198;-77
2021/10/20 04:17:37;;;;;;;3.93;1.77;;;;;;;-145.69;71.14;71887.94;5096235;28;20194;-77
2021/10/20 04:20:05;;;;;;;2.47;1.40;;;;;;;-145.69;65.73;71800.38;5095952;28;20206;-77
2021/10/20 04:22:32;;;;;;;1.70;0.83;;;;;;;-145.69;74.56;71828.25;5095569;28;20202;-77
2021/10/20 04:24:58;;;;;;;4.43;1.20;;;;;;;-145.69;69.60;71814.31;5093755;28;20214;-77
2021/10/20 04:27:25;;;;;;;3.17;1.30;;;;;;;-145.69;71.39;71832.22;5095665;28;20206;-77
2021/10/20 04:29:51;;;;;;;5.20;1.50;;;;;;;-145.69;73.71;71850.13;5096022;28;20225;-77
2021/10/20 04:32:19;;;;;;;2.77;1.23;;;;;;;-145.69;72.81;71824.25;5095269;28;20202;-77
2021/10/20 04:34:45;;;;;;;2.03;1.23;;;;;;;-145.69;73.04;71840.19;5095537;28;20588;-77
2021/10/20 04:37:12;;;;;;;5.77;1.47;;;;;;;-145.69;74.04;71820.28;5095870;28;20202;-77
2021/10/20 04:39:40;;;;;;;2.07;1.13;;;;;;;-145.69;76.95;71848.16;5095531;28;20205;-78
2021/10/20 04:42:07;;;;;;;1.77;1.00;;;;;;;-145.69;75.00;71848.16;5095586;28;20198;-77
2021/10/20 04:44:33;;;;;;;4.77;1.40;;;;;;;-145.69;74.71;71850.13;5094370;28;20607;-77
2021/10/20 04:46:59;;;;;;;5.43;1.57;;;;;;;-145.69;80.56;71854.13;5095894;28;20194;-77
2021/10/20 04:49:27;;;;;;;5.83;1.40;;;;;;;-145.69;78.89;71860.09;5095681;28;20706;-77
2021/10/20 04:51:55;;;;;;;2.57;1.20;;;;;;;-145.69;81.52;71872.03;5095264;28;20201;-77
2021/10/20 04:54:22;;;;;;;2.20;1.23;;;;;;;-145.69;79.58;71883.97;5095658;28;20263;-77
2021/10/20 04:56:49;;;;;;;2.90;1.30;;;;;;;-145.69;81.32;71895.91;5095562;28;20194;-77
2021/10/20 04:59:15;;;;;;;2.40;1.23;;;;;;;-145.69;80.08;71895.91;5095605;28;20202;-77
2021/10/20 05:01:42;;;;;;;2.63;1.50;;;;;;;-145.69;75.24;71876.00;5095530;28;20204;-77
2021/10/20 05:04:08;;;;;;;6.20;1.40;;;;;;;-145.69;74.82;71860.09;5095458;28;20210;-78
2021/10/20 05:06:36;;;;;;;2.07;1.40;;;;;;;-145.69;72.75;71850.13;5095264;28;20206;-78
2021/10/20 05:09:02;;;;;;;4.03;1.10;;;;;;;-145.69;82.35;71899.88;5095246;28;20194;-78
2021/10/20 05:11:29;;;;;;;2.27;1.40;;;;;;;-145.69;84.38;71963.56;5095011;28;20692;-77
2021/10/20 05:13:55;;;;;;;3.47;1.63;;;;;;;-145.69;90.42;72009.34;5095213;28;20205;-76
2021/10/20 05:16:22;;;;;;;8.13;1.90;;;;;;;-145.69;93.29;72003.38;5095295;28;20538;-76
2021/10/20 05:18:48;;;;;;;6.70;1.90;;;;;;;-145.69;93.43;72011.34;5094939;28;20556;-76
2021/10/20 05:21:15;;;;;;;7.47;1.80;;;;;;;-145.69;86.67;71969.53;5095033;28;20244;-77
2021/10/20 05:23:43;;;;;;;2.90;1.53;;;;;;;-145.69;85.09;71951.63;5094888;28;20549;-77
2021/10/20 05:26:09;;;;;;;4.87;1.83;;;;;;;-145.69;85.51;71895.91;5095092;28;20206;-77
2021/10/20 05:28:36;;;;;;;5.60;1.70;;;;;;;-145.69;84.93;71891.94;5094912;28;20201;-76
2021/10/20 05:31:02;;;;;;;5.03;1.67;;;;;;;-145.69;82.54;71899.88;5094820;28;20252;-77
2021/10/20 05:33:28;;;;;;;6.90;1.70;;;;;;;-145.69;82.56;71883.97;5094770;28;20210;-77
2021/10/20 05:35:55;;;;;;;2.87;1.33;;;;;;;-145.69;84.57;71907.84;5094498;28;20529;-77
2021/10/20 05:38:21;;;;;;;2.57;1.43;;;;;;;-145.69;84.67;71935.72;5094912;28;20259;-76
2021/10/20 05:40:49;;;;;;;1.47;1.23;;;;;;;-145.69;85.78;71943.69;5094629;28;20688;-77
2021/10/20 05:43:16;;;;;;;4.20;1.57;;;;;;;-145.69;90.79;71979.50;5094791;28;20198;-77
2021/10/20 05:45:42;;;;;;;3.00;1.50;;;;;;;-145.69;93.88;72023.28;5094723;28;20201;-76
2021/10/20 05:48:09;;;;;;;7.57;1.50;;;;;;;-145.69;93.77;72011.34;5094457;28;20202;-77
2021/10/20 05:50:35;;;;;;;7.40;1.47;;;;;;;-145.69;85.51;71965.56;5094194;28;20237;-77
2021/10/20 05:53:02;;;;;;;2.73;1.47;;;;;;;-145.69;91.53;72001.38;5094597;28;20210;-77
2021/10/20 05:55:28;;;;;;;2.47;1.40;;;;;;;-145.69;91.77;71989.44;5094419;28;20202;-77
2021/10/20 05:57:56;;;;;;;5.17;1.20;;;;;;;-145.69;81.28;71939.69;5090715;28;20198;-77
2021/10/20 06:00:22;;;;;;;2.87;1.63;;;;;;;-145.69;81.69;71929.75;5094313;28;20217;-77
2021/10/20 06:02:49;;;;;;;2.90;1.20;;;;;;;-145.69;88.40;71971.53;5094267;28;20209;-77
2021/10/20 06:05:15;;;;;;;5.43;1.20;;;;;;;-145.69;92.72;72003.38;5094249;28;20553;-77
2021/10/20 06:07:43;;;;;;;5.28;1.60;;;;;;;-145.69;90.60;71997.41;5094068;28;20408;-77
2021/10/20 06:10:11;;;;;;;2.57;1.57;;;;;;;-145.69;85.18;71957.59;5092663;28;20209;-77
2021/10/20 06:12:37;;;;;;;3.57;1.73;;;;;;;-145.69;92.27;71967.56;5093942;28;20197;-77
2021/10/20 06:15:07;;;;;;;2.60;1.60;;;;;;;-145.69;86.09;71955.63;5093933;28;20206;-77
2021/10/20 06:17:34;;;;;;;7.73;1.40;;;;;;;-145.69;84.00;71897.91;5093477;28;20615;-77
2021/10/20 06:20:00;;;;;;;3.43;1.77;;;;;;;-145.69;83.68;71897.91;5094096;28;20194;-76
2021/10/20 06:22:27;;;;;;;4.20;1.60;;;;;;;-145.69;84.78;71872.03;5094109;28;20209;-77
2021/10/20 06:24:54;;;;;;;2.73;1.47;;;;;;;-145.69;86.22;71889.94;5093932;28;20194;-78
2021/10/20 06:27:20;;;;;;;2.83;1.60;;;;;;;-145.69;85.99;71889.94;5093828;28;20722;-77
2021/10/20 06:29:46;;;;;;;1.77;1.30;;;;;;;-145.69;82.89;71885.97;5093695;28;20649;-77
2021/10/20 06:32:14;;;;;;;3.37;1.17;;;;;;;-145.69;84.52;71868.06;5093401;28;20229;-77
2021/10/20 06:34:41;;;;;;;2.60;1.30;;;;;;;-145.69;81.02;71864.06;5093609;28;20237;-77
2021/10/20 06:37:07;;;;;;;2.07;1.40;;;;;;;-145.69;82.49;71858.09;5093645;28;20202;-77
2021/10/20 06:39:34;;;;;;;2.90;1.33;;;;;;;-145.69;80.85;71840.19;5093745;28;20198;-78
2021/10/20 06:42:00;;;;;;;6.57;1.60;;;;;;;-145.69;82.97;71848.16;5093539;28;20199;-77
2021/10/20 06:44:27;;;;;;;2.97;1.60;;;;;;;-145.69;86.64;71872.03;5093544;28;20209;-77
2021/10/20 06:46:53;;;;;;;3.13;1.43;;;;;;;-145.69;93.41;71923.78;5093420;28;20255;-77
2021/10/20 06:49:21;;;;;;;5.23;1.40;;;;;;;-145.69;88.75;71899.88;5093531;28;20194;-78
2021/10/20 06:51:48;;;;;;;3.40;1.60;;;;;;;-145.69;88.21;71891.94;5093438;28;20241;-77
2021/10/20 06:54:18;;;;;;;7.30;1.60;;;;;;;-145.69;90.55;71880.00;5093410;28;20206;-78
2021/10/20 06:56:45;;;;;;;6.43;1.67;;;;;;;-145.69;90.89;71883.97;5093430;28;20644;-78
2021/10/20 06:59:11;;;;;;;1.63;1.17;;;;;;;-145.69;85.65;71868.06;5093127;28;20668;-77
2021/10/20 07:01:38;;;;;;;3.90;1.80;;;;;;;-145.69;90.63;71880.00;5093439;28;20201;-78
2021/10/20 07:04:04;;;;;;;2.87;1.30;;;;;;;-145.69;90.25;71876.00;5093250;28;20356;-77
2021/10/20 07:06:32;;;;;;;8.33;2.17;;;;;;;-145.69;95.86;71885.97;5093464;28;20206;-78
2021/10/20 07:08:59;;;;;;;4.00;1.30;;;;;;;-145.69;95.20;71899.88;5093174;28;20212;-78
2021/10/20 07:11:26;;;;;;;3.97;1.57;;;;;;;-145.69;94.96;71901.88;5093040;28;20691;-78
2021/10/20 07:13:52;;;;;;;8.83;1.90;;;;;;;-145.69;95.78;71883.97;5093000;28;20201;-77
2021/10/20 07:16:19;;;;;;;2.43;1.20;;;;;;;-145.69;92.83;71864.06;5093307;28;20205;-78
2021/10/20 07:18:45;;;;;;;1.80;1.40;;;;;;;-145.69;91.82;71844.16;5093094;28;20193;-78
2021/10/20 07:21:11;;;;;;;6.10;2.03;;;;;;;-145.69;91.62;71816.31;5093113;28;20205;-78
2021/10/20 07:23:39;;;;;;;2.50;1.23;;;;;;;-145.69;89.02;71804.38;5092979;28;20213;-77
2021/10/20 07:26:06;;;;;;;4.87;1.30;;;;;;;-145.69;88.12;71786.47;5092935;28;20198;-78
2021/10/20 07:28:32;;;;;;;2.63;1.40;;;;;;;-145.69;85.81;71760.59;5092823;28;20564;-78
2021/10/20 07:30:59;;;;;;;5.27;1.30;;;;;;;-145.69;85.85;71740.69;5096349;28;20222;-78
2021/10/20 07:33:25;;;;;;;2.97;1.30;;;;;;;-145.69;83.68;71716.81;5097042;28;20198;-77
2021/10/20 07:35:52;;;;;;;6.23;1.60;;;;;;;-145.69;82.84;71700.88;5097227;28;20198;-77
2021/10/20 07:38:18;;;;;;;3.00;1.40;;;;;;;-145.69;80.66;71675.00;5097035;28;20201;-77
2021/10/20 07:40:46;;;;;;;3.93;1.63;;;;;;;-145.69;79.13;71629.25;5097187;28;20212;-76
2021/10/20 07:43:12;;;;;;;3.97;1.47;;;;;;;-145.69;78.50;71599.41;5096990;28;20197;-76
2021/10/20 07:45:39;;;;;;;4.30;1.47;;;;;;;-145.69;75.44;71571.53;5096999;28;20198;-77
2021/10/20 07:48:06;;;;;;;2.87;1.83;;;;;;;-145.69;75.32;71539.69;5096981;28;20197;-77
2021/10/20 07:50:33;;;;;;;6.07;2.20;;;;;;;-145.69;76.66;71553.63;5093109;28;20205;-77
2021/10/20 07:53:00;;;;;;;3.33;1.70;;;;;;;-145.69;72.91;71529.75;5096674;28;20721;-78
2021/10/20 07:55:27;;;;;;;1.80;1.30;;;;;;;-145.69;73.41;71503.88;5096706;28;20202;-78
2021/10/20 07:57:55;;;;;;;2.42;1.35;;;;;;;-145.69;72.63;71464.09;5096855;28;20560;-77
2021/10/20 08:00:22;;;;;;;2.65;1.40;;;;;;;-145.69;70.18;71424.28;5096746;28;20194;-77
2021/10/20 08:02:48;;;;;;;2.17;1.20;;;;;;;-145.69;60.28;71374.53;5096678;28;20206;-77
2021/10/20 08:05:15;;;;;;;4.43;1.60;;;;;;;-145.69;61.07;71300.91;5096663;28;20198;-77
2021/10/20 08:07:45;;;;;;;2.67;1.23;;;;;;;-145.69;59.16;71273.06;5096470;28;20235;-77
2021/10/20 08:10:12;;;;;;;1.65;1.23;;;;;;;-145.69;51.70;71211.38;5096261;28;20198;-78
2021/10/20 08:12:39;;;;;;;2.13;1.20;;;;;;;-145.69;52.42;71171.56;5096327;28;20230;-77
2021/10/20 08:15:09;;;;;;;2.85;1.42;;;;;;;-145.69;53.73;71133.78;5096461;28;20194;-77
2021/10/20 08:17:36;;;;;;;3.10;1.30;;;;;;;-145.69;49.45;71088.00;5095940;28;20209;-78
2021/10/20 08:20:04;;;;;;;1.63;1.02;;;;;;;-145.69;50.09;71060.16;5096309;28;20198;-77
2021/10/20 08:22:30;;;;;;;1.63;1.30;;;;;;;-145.69;50.39;71038.25;5096032;28;20699;-77
2021/10/20 08:24:57;;;;;;;1.50;1.02;;;;;;;-145.69;50.66;71018.38;5096312;28;20198;-77
2021/10/20 08:27:23;;;;;;;3.90;1.20;;;;;;;-145.69;50.85;71004.44;5096244;28;20202;-77
2021/10/20 08:29:50;;;;;;;2.15;1.30;;;;;;;-145.69;52.21;70994.50;5096032;28;20202;-77
2021/10/20 08:32:18;;;;;;;2.33;1.20;;;;;;;-145.69;53.28;70966.63;5095082;28;20453;-77
2021/10/20 08:34:46;;;;;;;1.95;1.10;;;;;;;-145.69;51.84;70944.75;5095774;28;20230;-77
2021/10/20 08:37:13;;;;;;;1.60;1.25;;;;;;;-145.69;54.11;70936.78;5095798;28;20198;-78
2021/10/20 08:39:39;;;;;;;2.05;1.20;;;;;;;-145.69;47.32;70897.00;5095527;28;20202;-78
2021/10/20 08:42:06;;;;;;;1.30;0.98;;;;;;;-145.69;49.76;70871.13;5094737;28;20201;-78
2021/10/20 08:44:32;;;;;;;2.47;1.17;;;;;;;-145.69;47.49;70853.22;5095800;28;20202;-77
2021/10/20 08:47:00;;;;;;;2.42;0.90;;;;;;;-145.69;44.81;70833.34;5095634;28;20657;-77
2021/10/20 08:49:29;;;;;;;1.45;1.00;;;;;;;-145.69;44.83;70831.34;5095664;28;20581;-78
2021/10/20 08:51:56;;;;;;;1.60;1.10;;;;;;;-145.69;45.06;70833.34;5095490;28;20233;-77
2021/10/20 08:54:23;;;;;;;4.15;1.23;;;;;;;-145.69;45.58;70841.28;5095636;28;20201;-77
2021/10/20 08:56:50;;;;;;;2.55;1.20;;;;;;;-145.69;44.70;70827.38;5095664;28;20266;-77
2021/10/20 08:59:18;;;;;;;1.77;1.10;;;;;;;-145.69;45.63;70833.34;5095360;28;20202;-77
2021/10/20 09:01:45;;;;;;;5.28;1.40;;;;;;;-145.69;42.90;70825.38;5095429;28;20251;-77
2021/10/20 09:04:11;;;;;;;2.47;1.30;;;;;;;-145.69;42.85;70819.41;5095169;28;20209;-78
2021/10/20 09:06:39;;;;;;;2.08;1.20;;;;;;;-145.69;45.68;70805.47;5095387;28;20603;-77
2021/10/20 09:09:07;;;;;;;2.90;1.20;;;;;;;-145.69;43.65;70797.53;5095269;28;20197;-77
2021/10/20 09:11:34;;;;;;;5.22;1.25;;;;;;;-145.69;45.23;70775.63;5095250;28;20222;-77
2021/10/20 09:14:03;;;;;;;1.70;1.10;;;;;;;-145.69;44.63;70749.78;5095002;28;20198;-77
2021/10/20 09:16:30;;;;;;;3.33;1.10;;;;;;;-145.69;43.10;70729.88;5095095;28;20553;-76
2021/10/20 09:18:58;;;;;;;1.98;1.05;;;;;;;-145.69;44.37;70725.91;5081958;28;20203;-76
2021/10/20 09:21:25;;;;;;;1.52;1.15;;;;;;;-145.69;43.83;70713.97;5074787;28;20722;-76
2021/10/20 09:23:53;;;;;;;2.42;1.20;;;;;;;-145.69;42.70;70709.97;5077383;28;20190;-76
2021/10/20 09:26:20;;;;;;;2.45;1.15;;;;;;;-145.69;42.94;70700.03;5094821;28;20247;-76
2021/10/20 09:28:46;;;;;;;1.80;1.27;;;;;;;-145.69;43.62;70690.09;5094296;28;20201;-79
2021/10/20 09:31:13;;;;;;;1.75;1.15;;;;;;;-145.69;43.17;70702.03;5094550;28;20198;-79
2021/10/20 09:33:40;;;;;;;3.80;1.30;;;;;;;-145.69;44.29;70737.84;5094840;28;20246;-76
2021/10/20 09:36:09;;;;;;;2.45;1.25;;;;;;;-145.69;43.42;70729.88;5094779;28;20201;-77
2021/10/20 09:38:37;;;;;;;2.33;1.30;;;;;;;-145.69;46.45;70725.91;5094716;28;20201;-77
2021/10/20 09:41:07;;;;;;;2.10;1.25;;;;;;;-145.69;44.98;70737.84;5094630;28;20208;-77
2021/10/20 09:43:39;;;;;;;2.85;1.30;;;;;;;-145.69;45.34;70725.91;5094524;28;20209;-75
2021/10/20 09:46:06;;;;;;;5.15;1.45;;;;;;;-145.69;47.17;70715.94;5094685;28;20201;-76
2021/10/20 09:48:32;;;;;;;1.80;1.20;;;;;;;-145.69;46.61;70698.03;5094566;28;20198;-76
2021/10/20 09:51:06;;;;;;;2.80;1.40;;;;;;;-145.69;45.91;70690.09;5094239;28;20605;-76
2021/10/20 09:53:35;;;;;;;3.40;1.73;;;;;;;-145.69;46.89;70674.16;5085067;28;20566;-77
2021/10/20 09:56:04;;;;;;;2.72;1.95;;;;;;;-145.69;46.76;70658.25;5074030;28;20298;-76
2021/10/20 09:58:33;;;;;;;3.23;1.67;;;;;;;-145.69;45.91;70654.28;5087479;28;20490;-77
2021/10/20 10:01:01;;;;;;;1.70;1.40;;;;;;;-145.69;49.05;70638.34;5094248;28;20285;-76
2021/10/20 10:03:27;;;;;;;4.43;1.40;;;;;;;-145.69;48.58;70626.41;5094125;28;20202;-77
2021/10/20 10:05:54;;;;;;;2.28;1.55;;;;;;;-145.69;46.48;70616.47;5094144;28;20210;-77
2021/10/20 10:08:20;;;;;;;1.98;1.30;;;;;;;-145.69;47.55;70614.47;5094010;28;20206;-77
2021/10/20 10:10:47;;;;;;;1.77;1.30;;;;;;;-145.69;46.43;70602.56;5092918;28;20466;-76
2021/10/20 10:13:20;;;;;;;2.85;1.30;;;;;;;-145.69;46.29;70570.72;5094177;28;20230;-77
2021/10/20 10:15:49;;;;;;;1.85;1.10;;;;;;;-145.69;48.41;70564.75;5094162;28;20260;-76
2021/10/20 10:18:16;;;;;;;1.27;1.17;;;;;;;-145.69;47.15;70546.84;5094005;28;20225;-77
2021/10/20 10:20:45;;;;;;;3.90;1.38;;;;;;;-145.69;45.95;70554.81;5093795;28;20205;-77
2021/10/20 10:23:22;;;;;;;1.55;1.17;;;;;;;-145.69;47.65;70544.84;5093760;28;20569;-77
2021/10/20 10:25:58;;;;;;;2.88;1.40;;;;;;;-145.69;46.74;70550.81;5093942;28;20198;-77
2021/10/20 10:28:27;;;;;;;3.80;1.20;;;;;;;-145.69;46.10;70522.97;5093794;28;20209;-77
2021/10/20 10:30:56;;;;;;;1.17;1.08;;;;;;;-145.69;47.58;70515.00;5093770;28;20206;-76
2021/10/20 10:33:25;;;;;;;3.25;1.25;;;;;;;-145.69;47.94;70511.03;5093344;28;20226;-77
2021/10/20 10:36:13;;;;;;;5.85;1.20;;;;;;;-145.69;46.81;70475.22;5093565;28;20209;-77
2021/10/20 10:38:41;;;;;;;4.60;1.13;;;;;;;-145.69;46.71;70495.13;5093635;28;20197;-77
2021/10/20 10:41:23;;;;;;;2.10;1.40;;;;;;;-145.69;46.28;70542.88;5093545;28;20657;-77
2021/10/20 10:44:18;;;;;;;2.97;1.30;;;;;;;-145.69;48.49;70550.81;5093600;28;20197;-76
2021/10/20 10:47:26;;;;;;;3.13;1.42;;;;;;;-145.69;49.53;70584.66;5092762;28;20204;-77
2021/10/20 10:49:55;;;;;;;1.55;1.30;;;;;;;-145.69;50.00;70590.63;5086734;28;20714;-77
2021/10/20 10:52:33;;;;;;;2.03;1.10;;;;;;;-145.69;49.77;70594.59;5092953;28;20228;-77
2021/10/20 10:55:20;;;;;;;2.63;1.40;;;;;;;-145.69;48.06;70574.69;5093519;28;20209;-76
2021/10/20 10:57:58;;;;;;;3.38;1.27;;;;;;;-145.69;50.21;70546.84;5093172;28;20198;-76
2021/10/20 11:00:31;;;;;;;1.85;1.02;;;;;;;-145.69;50.04;70513.03;5093032;28;20552;-77
2021/10/20 11:02:59;;;;;;;1.90;1.20;;;;;;;-145.69;48.79;70479.19;5093060;28;20202;-76
2021/10/20 11:05:28;;;;;;;3.70;1.15;;;;;;;-145.69;48.19;70483.19;5093240;28;20207;-76
2021/10/20 11:08:00;;;;;;;2.35;1.25;;;;;;;-145.69;48.60;70483.19;5092863;28;20683;-76
2021/10/20 11:10:27;;;;;;;4.63;1.63;;;;;;;-145.69;49.33;70509.03;5093195;28;20205;-76
2021/10/20 11:12:55;;;;;;;1.17;1.05;;;;;;;-145.69;48.64;70544.84;5092957;28;20283;-76
2021/10/20 11:15:23;;;;;;;3.20;1.27;;;;;;;-145.69;49.89;70526.94;5093039;28;20252;-76
2021/10/20 11:17:50;;;;;;;3.00;1.15;;;;;;;-145.69;49.96;70499.09;5093143;28;20259;-76
2021/10/20 11:20:18;;;;;;;2.85;1.27;;;;;;;-145.69;48.34;70509.03;5092984;28;20225;-76